Nordegg, Canada
Current Conditions -  °F | °C
As of 9:00 PM on Saturday 25 Oct 2014 (Local Time) from CYET Reporting Station
Broken Clouds Broken Clouds  
Wind Chill: 31°   Ceiling: 17000
Heat Index: 37°   Visibility: 9mi
Dew Point: 28°   Wind: 8mph
Humidity: 70%   Direction: 60°ENE
Pressure: 29.47"   Gusts: NA
Location:  52.47°N, 116.08°W
Report Text: CYET 260300Z AUTO 06007KT 9SM FEW130 BKN170 BKN220 03/M02 A2947 RMK SLP012
Loading
Personal Weather Stations






























Interactive Weather Map
Tropical Storm Tracking
New forecast layout! Learn more

10-Day Weather Forecast

Advertisements
Track Severe Weather on mobile